Time;durP1;ratioP1;P1;durP2;ratioP2;P2;SDS_P1;SDS_P2;PMS_P1;PMS_P2;Temp;Humidity;BMP_temperature;BMP_pressure;BME280_temperature;BME280_humidity;BME280_pressure;Samples;Min_cycle;Max_cycle;Signal;HPM_P1;HPM_P2
2022/06/10 00:00:38;;;;;;;6.07;3.53;;;14.50;99.90;;;;;;4993994;28;20687;-55
2022/06/10 00:03:05;;;;;;;6.80;4.30;;;14.50;99.90;;;;;;4994433;28;20184;-55
2022/06/10 00:05:31;;;;;;;5.38;3.80;;;14.60;99.90;;;;;;4993632;28;20641;-56
2022/06/10 00:07:57;;;;;;;7.85;3.70;;;14.70;99.90;;;;;;4993716;28;20177;-56
2022/06/10 00:10:25;;;;;;;8.52;3.80;;;14.80;99.90;;;;;;4993466;28;20540;-56
2022/06/10 00:12:51;;;;;;;12.05;5.22;;;14.60;99.90;;;;;;4993461;28;20169;-56
2022/06/10 00:15:17;;;;;;;5.25;3.55;;;14.50;99.90;;;;;;4993279;28;20215;-56
2022/06/10 00:17:43;;;;;;;4.75;3.83;;;14.60;99.90;;;;;;4975941;28;20587;-55
2022/06/10 00:20:12;;;;;;;10.13;4.05;;;14.70;99.90;;;;;;4993236;28;20321;-55
2022/06/10 00:22:38;;;;;;;8.88;3.83;;;14.60;99.90;;;;;;4993322;28;20169;-55
2022/06/10 00:25:06;;;;;;;6.00;4.20;;;14.40;99.90;;;;;;4993609;28;20172;-56
2022/06/10 00:27:32;;;;;;;4.38;3.55;;;14.30;99.90;;;;;;4993515;28;20176;-55
2022/06/10 00:29:58;;;;;;;11.10;4.53;;;14.20;99.90;;;;;;4993178;28;20172;-56
2022/06/10 00:32:23;;;;;;;12.23;4.03;;;14.20;99.90;;;;;;4993066;28;20197;-56
2022/06/10 00:34:49;;;;;;;14.18;4.80;;;14.20;99.90;;;;;;4993040;28;20262;-55
2022/06/10 00:37:14;;;;;;;13.68;5.18;;;14.20;99.90;;;;;;4993022;28;20169;-55
2022/06/10 00:39:40;;;;;;;11.23;5.50;;;14.20;99.90;;;;;;4992924;28;20223;-56
2022/06/10 00:42:07;;;;;;;19.08;7.13;;;14.10;99.90;;;;;;4993296;28;20165;-55
2022/06/10 00:44:49;;;;;;;21.95;7.97;;;14.10;99.90;;;;;;4993427;28;20267;-55
2022/06/10 00:47:22;;;;;;;14.02;6.88;;;14.10;99.90;;;;;;4993018;28;20211;-55
2022/06/10 00:50:16;;;;;;;15.52;7.22;;;14.10;99.90;;;;;;4992905;28;20207;-55
2022/06/10 00:52:48;;;;;;;14.27;6.57;;;14.10;99.90;;;;;;4985074;28;20180;-55
2022/06/10 00:55:14;;;;;;;11.05;5.95;;;14.10;99.90;;;;;;4992725;28;20208;-55
2022/06/10 00:57:44;;;;;;;16.80;5.60;;;13.80;99.90;;;;;;4992785;28;20216;-56
2022/06/10 01:00:13;;;;;;;12.73;6.40;;;14.00;99.90;;;;;;4992795;28;20169;-56
2022/06/10 01:02:40;;;;;;;12.48;5.07;;;13.90;99.90;;;;;;4992659;28;20169;-55
2022/06/10 01:05:16;;;;;;;14.00;5.47;;;14.00;99.90;;;;;;4992908;28;20542;-55
2022/06/10 01:07:58;;;;;;;15.85;4.80;;;14.00;99.90;;;;;;4992284;28;20177;-55
2022/06/10 01:10:24;;;;;;;8.10;4.65;;;14.00;99.90;;;;;;4992609;28;20169;-56
2022/06/10 01:13:26;;;;;;;8.07;4.68;;;14.00;99.90;;;;;;4975258;28;20183;-55
2022/06/10 01:16:07;;;;;;;14.25;5.13;;;13.90;99.90;;;;;;4992444;28;20242;-56
2022/06/10 01:18:50;;;;;;;11.02;4.80;;;14.00;99.90;;;;;;4992911;28;20171;-56
2022/06/10 01:21:44;;;;;;;9.57;4.18;;;14.10;99.90;;;;;;4992429;28;20172;-56
2022/06/10 01:24:43;;;;;;;12.38;4.38;;;14.00;99.90;;;;;;4992470;28;20828;-55
2022/06/10 01:30:20;;;;;;;15.25;5.18;;;14.10;99.90;;;;;;4992761;28;20180;-56
2022/06/10 01:33:08;;;;;;;12.48;5.35;;;14.00;99.90;;;;;;4992566;28;20176;-56
2022/06/10 01:35:57;;;;;;;12.73;4.53;;;14.00;99.90;;;;;;4964894;28;20332;-55
2022/06/10 01:38:32;;;;;;;16.90;4.90;;;14.00;99.90;;;;;;4992353;28;20179;-55
2022/06/10 01:41:15;;;;;;;14.73;4.75;;;14.10;99.90;;;;;;4992266;28;20157;-55
2022/06/10 01:43:53;;;;;;;11.90;4.22;;;14.10;99.90;;;;;;4992281;28;20604;-55
2022/06/10 01:46:27;;;;;;;18.10;4.63;;;14.10;99.90;;;;;;4992299;28;20222;-56
2022/06/10 01:49:11;;;;;;;9.27;4.63;;;14.00;99.90;;;;;;4992018;28;20347;-56
2022/06/10 01:51:45;;;;;;;12.23;5.53;;;14.00;99.90;;;;;;4992293;28;20168;-56
2022/06/10 01:54:32;;;;;;;12.75;4.93;;;14.00;99.90;;;;;;4974628;28;20170;-56
2022/06/10 01:57:03;;;;;;;13.18;5.47;;;14.00;99.90;;;;;;4992253;28;20176;-55
2022/06/10 01:59:35;;;;;;;21.52;5.72;;;14.00;99.90;;;;;;4992136;28;20530;-56
2022/06/10 02:02:09;;;;;;;14.95;4.93;;;14.00;99.90;;;;;;4974936;28;20181;-56
2022/06/10 02:04:51;;;;;;;14.25;4.93;;;14.00;99.90;;;;;;4992438;28;20169;-57
2022/06/10 02:07:23;;;;;;;9.63;5.15;;;13.90;99.90;;;;;;4992129;28;20249;-56
2022/06/10 02:10:02;;;;;;;16.15;4.55;;;13.90;99.90;;;;;;4992022;28;20177;-55
2022/06/10 02:12:37;;;;;;;9.38;4.43;;;13.90;99.90;;;;;;4992028;28;20203;-55
2022/06/10 02:15:18;;;;;;;8.73;4.20;;;13.80;99.90;;;;;;4992354;28;20211;-55
2022/06/10 02:17:50;;;;;;;15.07;5.20;;;13.90;99.90;;;;;;4993843;28;20298;-55
2022/06/10 02:20:22;;;;;;;13.75;5.43;;;13.80;99.90;;;;;;4995622;28;20247;-55
2022/06/10 02:22:48;;;;;;;16.02;4.47;;;13.90;99.90;;;;;;4995521;28;20168;-55
2022/06/10 02:25:18;;;;;;;16.02;5.30;;;13.80;99.90;;;;;;4995399;28;20581;-55
2022/06/10 02:27:51;;;;;;;12.35;4.47;;;13.80;99.90;;;;;;4995484;28;20234;-55
2022/06/10 02:30:28;;;;;;;14.80;4.63;;;13.70;99.90;;;;;;4995365;28;20187;-56
2022/06/10 02:32:55;;;;;;;11.40;4.22;;;13.70;99.90;;;;;;4995292;28;20172;-56
2022/06/10 02:35:22;;;;;;;12.00;4.32;;;13.70;99.90;;;;;;4995227;28;20301;-56
2022/06/10 02:38:09;;;;;;;11.43;4.32;;;13.60;99.90;;;;;;4994720;28;20167;-56
2022/06/10 02:40:45;;;;;;;10.45;5.03;;;13.70;99.90;;;;;;4995736;28;20173;-55
2022/06/10 02:43:20;;;;;;;11.93;4.28;;;13.70;99.90;;;;;;4995139;28;20251;-55
2022/06/10 02:46:10;;;;;;;11.48;4.68;;;13.60;99.90;;;;;;4995239;28;20231;-55
2022/06/10 02:48:49;;;;;;;11.23;4.53;;;13.40;99.90;;;;;;4994843;28;20216;-55
2022/06/10 02:51:16;;;;;;;11.80;4.43;;;13.40;99.90;;;;;;4995020;28;20161;-55
2022/06/10 02:53:42;;;;;;;11.45;4.53;;;13.40;99.90;;;;;;4995106;28;20258;-54
2022/06/10 02:56:24;;;;;;;8.82;4.25;;;13.40;99.90;;;;;;4977276;28;20681;-55
2022/06/10 03:02:00;;;;;;;15.43;5.72;;;13.40;99.90;;;;;;4994755;28;20180;-55
2022/06/10 03:04:42;;;;;;;13.52;5.22;;;13.40;99.90;;;;;;4994779;28;20172;-56
2022/06/10 03:07:29;;;;;;;15.85;4.88;;;13.40;99.90;;;;;;4994701;28;20638;-55
2022/06/10 03:10:08;;;;;;;10.02;4.47;;;13.50;99.90;;;;;;4994842;28;20506;-55
2022/06/10 03:12:55;;;;;;;18.52;5.18;;;13.60;99.90;;;;;;4994865;28;20692;-55
2022/06/10 03:15:45;;;;;;;11.18;4.85;;;13.60;99.90;;;;;;4994440;28;20212;-55
2022/06/10 03:18:33;;;;;;;8.23;4.57;;;13.50;99.90;;;;;;4994798;28;20538;-55
2022/06/10 03:21:24;;;;;;;8.25;4.05;;;13.50;99.90;;;;;;4994377;28;20283;-55
2022/06/10 03:24:24;;;;;;;13.32;4.88;;;13.50;99.90;;;;;;4994472;28;20188;-55
2022/06/10 03:27:01;;;;;;;7.55;4.25;;;13.50;99.90;;;;;;4994537;28;20231;-55
2022/06/10 03:29:57;;;;;;;10.10;4.65;;;13.50;99.90;;;;;;4993502;28;20171;-55
2022/06/10 03:32:32;;;;;;;13.40;4.82;;;13.50;99.90;;;;;;4976761;28;20187;-55
2022/06/10 03:35:10;;;;;;;12.82;4.20;;;13.50;99.90;;;;;;4994130;28;20222;-55
2022/06/10 03:37:40;;;;;;;13.18;3.92;;;13.40;99.90;;;;;;4994105;28;20194;-55
2022/06/10 03:40:12;;;;;;;11.35;4.65;;;13.40;99.90;;;;;;4994121;28;20218;-55
2022/06/10 03:42:37;;;;;;;7.60;4.32;;;13.40;99.90;;;;;;4994037;28;20204;-55
2022/06/10 03:45:03;;;;;;;11.73;4.63;;;13.30;99.90;;;;;;4994226;28;20211;-55
2022/06/10 03:47:33;;;;;;;11.15;4.88;;;13.30;99.90;;;;;;4993802;28;20735;-55
2022/06/10 03:50:07;;;;;;;10.30;5.13;;;13.30;99.90;;;;;;4993821;28;20662;-56
2022/06/10 03:52:38;;;;;;;17.70;5.22;;;13.40;99.90;;;;;;4994413;28;20169;-56
2022/06/10 03:55:05;;;;;;;12.32;5.60;;;13.50;99.90;;;;;;4994053;28;20200;-56
2022/06/10 03:57:31;;;;;;;15.65;5.75;;;13.60;99.90;;;;;;4993923;28;20161;-56
2022/06/10 03:59:56;;;;;;;13.10;5.22;;;13.70;99.90;;;;;;4993744;28;20179;-56
2022/06/10 04:02:22;;;;;;;14.07;6.45;;;13.70;99.90;;;;;;4976111;28;20164;-55
2022/06/10 04:04:47;;;;;;;14.60;4.68;;;13.80;99.90;;;;;;4993866;28;20173;-56
2022/06/10 04:07:17;;;;;;;10.30;4.85;;;13.80;99.90;;;;;;4993554;28;20634;-56
2022/06/10 04:09:43;;;;;;;15.88;4.47;;;13.80;99.90;;;;;;4993617;28;20179;-55
2022/06/10 04:12:09;;;;;;;9.68;4.57;;;13.80;99.90;;;;;;4993696;28;20506;-55
2022/06/10 04:14:36;;;;;;;16.38;4.88;;;14.00;99.90;;;;;;4993250;28;20728;-55
2022/06/10 04:17:02;;;;;;;10.98;5.18;;;14.10;99.90;;;;;;4993617;28;20188;-56
2022/06/10 04:19:28;;;;;;;10.00;4.25;;;14.20;99.90;;;;;;4993350;28;20193;-56
2022/06/10 04:21:53;;;;;;;10.55;4.20;;;14.30;99.90;;;;;;4993194;28;20204;-56
2022/06/10 04:24:19;;;;;;;8.63;4.00;;;14.40;99.90;;;;;;4993512;28;20255;-56
2022/06/10 04:26:45;;;;;;;8.35;3.88;;;14.40;99.90;;;;;;4993393;28;20180;-56
2022/06/10 04:29:14;;;;;;;11.27;3.38;;;14.60;99.90;;;;;;4992915;28;20176;-55
2022/06/10 04:31:39;;;;;;;10.45;3.40;;;14.70;99.90;;;;;;4993027;28;20173;-55
2022/06/10 04:34:05;;;;;;;8.23;3.10;;;14.80;99.90;;;;;;4993099;28;20176;-55
2022/06/10 04:36:31;;;;;;;8.07;2.67;;;15.00;99.90;;;;;;4993394;28;20295;-55
2022/06/10 04:38:57;;;;;;;8.55;3.08;;;15.30;99.90;;;;;;4993065;28;20168;-55
2022/06/10 04:41:23;;;;;;;9.02;2.92;;;15.60;99.90;;;;;;4992193;28;20171;-55
2022/06/10 04:43:48;;;;;;;9.45;2.80;;;15.60;99.90;;;;;;4992954;28;20169;-55
2022/06/10 04:46:25;;;;;;;10.45;3.25;;;15.70;99.90;;;;;;4992912;28;20164;-55
2022/06/10 04:48:51;;;;;;;13.73;3.70;;;16.00;99.90;;;;;;4992768;28;20637;-55
2022/06/10 04:51:17;;;;;;;18.20;5.60;;;16.20;99.90;;;;;;4992764;28;20306;-55
2022/06/10 04:53:42;;;;;;;24.40;6.13;;;16.20;99.90;;;;;;4993000;28;20259;-55
2022/06/10 04:56:08;;;;;;;13.88;5.18;;;16.40;99.90;;;;;;4992596;28;20658;-56
2022/06/10 04:58:34;;;;;;;14.80;4.88;;;16.60;99.90;;;;;;4993040;28;20176;-56
2022/06/10 05:00:59;;;;;;;14.27;5.30;;;16.70;99.90;;;;;;4993004;28;20188;-56
2022/06/10 05:03:25;;;;;;;12.45;4.57;;;16.80;99.90;;;;;;4992652;28;20183;-55
2022/06/10 05:05:51;;;;;;;17.48;5.40;;;16.80;99.90;;;;;;4992535;28;20689;-55
2022/06/10 05:08:18;;;;;;;11.65;4.85;;;16.90;99.90;;;;;;4992624;28;20161;-56
2022/06/10 05:10:45;;;;;;;18.92;5.47;;;16.90;99.90;;;;;;4974934;28;20173;-55
2022/06/10 05:13:11;;;;;;;11.68;4.55;;;16.70;99.90;;;;;;4992402;28;20169;-55
2022/06/10 05:15:36;;;;;;;14.00;3.08;;;16.60;99.90;;;;;;4992300;28;20732;-55
2022/06/10 05:18:02;;;;;;;14.13;3.55;;;16.40;99.90;;;;;;4992764;28;20169;-56
2022/06/10 05:20:34;;;;;;;9.00;2.40;;;16.30;99.90;;;;;;4992465;28;20175;-56
2022/06/10 05:23:04;;;;;;;9.13;2.40;;;16.20;99.90;;;;;;4992775;28;20164;-56
2022/06/10 05:25:30;;;;;;;11.75;2.58;;;16.00;99.90;;;;;;4992644;28;20252;-55
2022/06/10 05:27:56;;;;;;;10.18;2.38;;;16.00;99.90;;;;;;4992439;28;20165;-56
2022/06/10 05:30:24;;;;;;;5.63;2.55;;;15.90;99.90;;;;;;4992380;28;20202;-55
2022/06/10 05:32:50;;;;;;;10.13;2.35;;;15.80;99.90;;;;;;4992445;28;20183;-55
2022/06/10 05:35:17;;;;;;;11.13;2.53;;;15.70;99.90;;;;;;4992202;28;20290;-55
2022/06/10 05:37:43;;;;;;;7.10;2.10;;;15.70;99.90;;;;;;4992192;28;20493;-55
2022/06/10 05:40:12;;;;;;;8.18;3.00;;;15.80;99.90;;;;;;4992257;28;20506;-55
2022/06/10 05:42:37;;;;;;;6.57;2.35;;;15.70;99.90;;;;;;4992146;28;20637;-55
2022/06/10 05:45:03;;;;;;;7.93;2.45;;;15.70;99.90;;;;;;4992350;28;20231;-55
2022/06/10 05:47:33;;;;;;;8.18;2.55;;;15.70;99.90;;;;;;4992317;28;20263;-55
2022/06/10 05:50:01;;;;;;;5.20;2.60;;;15.70;99.90;;;;;;4992469;28;20175;-55
2022/06/10 05:52:29;;;;;;;7.18;2.30;;;15.70;99.90;;;;;;4993474;28;20184;-55
2022/06/10 05:54:57;;;;;;;6.43;2.63;;;15.60;99.90;;;;;;4995923;28;20208;-56
2022/06/10 05:57:23;;;;;;;11.18;2.85;;;15.80;99.90;;;;;;4995937;28;20176;-55
2022/06/10 05:59:52;;;;;;;9.18;2.60;;;15.90;99.90;;;;;;4996229;28;20227;-55
2022/06/10 06:02:19;;;;;;;9.88;2.80;;;15.90;99.90;;;;;;4995804;28;20649;-55
2022/06/10 06:04:45;;;;;;;6.18;2.60;;;15.90;99.90;;;;;;4995759;28;20634;-55
2022/06/10 06:07:20;;;;;;;8.85;2.78;;;16.00;99.90;;;;;;4995892;28;20165;-55
2022/06/10 06:09:46;;;;;;;6.35;2.60;;;16.00;99.90;;;;;;4995637;28;20164;-56
2022/06/10 06:12:11;;;;;;;14.02;3.20;;;16.10;99.90;;;;;;4995713;28;20179;-55
2022/06/10 06:14:37;;;;;;;14.05;3.55;;;16.10;99.90;;;;;;4995600;28;20576;-55
2022/06/10 06:17:04;;;;;;;10.45;3.05;;;16.20;99.90;;;;;;4995800;28;20172;-55
2022/06/10 06:19:31;;;;;;;11.15;2.63;;;16.30;99.90;;;;;;4995856;28;20165;-55
2022/06/10 06:21:57;;;;;;;7.32;3.05;;;16.30;99.90;;;;;;4995496;28;20254;-56
2022/06/10 06:24:23;;;;;;;5.70;2.70;;;16.30;99.90;;;;;;4995419;28;20173;-56
2022/06/10 06:26:49;;;;;;;10.43;2.78;;;16.40;99.90;;;;;;4995468;28;20251;-55
2022/06/10 06:29:14;;;;;;;7.38;3.00;;;16.30;99.90;;;;;;4995429;28;20189;-55
2022/06/10 06:31:40;;;;;;;8.88;3.78;;;16.30;99.90;;;;;;4995450;28;20690;-55
2022/06/10 06:34:06;;;;;;;6.80;3.08;;;16.40;99.90;;;;;;4995189;28;20253;-55
2022/06/10 06:36:45;;;;;;;10.27;2.95;;;16.40;99.90;;;;;;4978251;28;20701;-55
2022/06/10 06:39:16;;;;;;;8.30;2.65;;;16.50;99.90;;;;;;4995273;28;20169;-55
2022/06/10 06:41:42;;;;;;;9.65;3.33;;;16.70;99.90;;;;;;4995288;28;20231;-55
2022/06/10 06:44:08;;;;;;;5.57;2.13;;;16.60;99.90;;;;;;4978161;28;20173;-55
2022/06/10 06:46:35;;;;;;;11.07;2.58;;;16.80;99.90;;;;;;4995294;28;20173;-55
2022/06/10 06:49:03;;;;;;;6.55;2.58;;;16.90;99.90;;;;;;4995235;28;20212;-55
2022/06/10 06:51:29;;;;;;;11.57;3.30;;;16.90;99.90;;;;;;4995320;28;20173;-56
2022/06/10 06:53:55;;;;;;;8.02;3.30;;;17.00;99.90;;;;;;4994857;28;20199;-56
2022/06/10 06:56:21;;;;;;;10.40;3.50;;;17.00;99.90;;;;;;4977328;28;20302;-56
2022/06/10 06:58:46;;;;;;;6.82;2.80;;;17.00;99.90;;;;;;4995024;28;20264;-55
2022/06/10 07:01:12;;;;;;;7.40;2.80;;;17.10;99.90;;;;;;4994809;28;20637;-55
2022/06/10 07:03:37;;;;;;;9.05;3.03;;;17.10;99.90;;;;;;4993700;28;20165;-55
2022/06/10 07:06:03;;;;;;;8.65;2.35;;;17.20;99.90;;;;;;4994890;28;20268;-57
2022/06/10 07:08:32;;;;;;;11.43;2.95;;;17.30;99.90;;;;;;4995056;28;20177;-55
2022/06/10 07:10:59;;;;;;;8.52;2.70;;;17.50;99.90;;;;;;4994790;28;20181;-55
2022/06/10 07:13:25;;;;;;;9.45;3.17;;;17.70;99.90;;;;;;4994526;28;20220;-56
2022/06/10 07:15:51;;;;;;;9.77;3.13;;;17.90;99.90;;;;;;4994508;28;20209;-56
2022/06/10 07:18:17;;;;;;;11.75;3.05;;;18.20;99.90;;;;;;4994426;28;20161;-56
2022/06/10 07:20:44;;;;;;;10.20;3.13;;;18.30;99.90;;;;;;4994703;28;20546;-55
2022/06/10 07:23:09;;;;;;;9.32;2.60;;;18.60;99.90;;;;;;4994608;28;20176;-56
2022/06/10 07:25:35;;;;;;;8.65;2.88;;;18.70;99.90;;;;;;4994332;28;20171;-55
2022/06/10 07:28:01;;;;;;;9.93;3.03;;;19.00;99.90;;;;;;4994890;28;20623;-55
2022/06/10 07:30:30;;;;;;;8.52;2.55;;;19.00;99.90;;;;;;4994187;28;20173;-55
2022/06/10 07:32:57;;;;;;;10.02;2.80;;;19.10;99.90;;;;;;4994189;28;20157;-56
2022/06/10 07:35:23;;;;;;;7.50;2.33;;;19.20;99.90;;;;;;4976588;28;20220;-56
2022/06/10 07:37:50;;;;;;;9.90;2.92;;;19.40;99.90;;;;;;4994130;28;20169;-56
2022/06/10 07:43:08;;;;;;;7.82;2.22;;;19.70;99.90;;;;;;4994294;28;20184;-56
2022/06/10 07:45:34;;;;;;;8.02;2.60;;;19.70;99.90;;;;;;4993997;28;20165;-55
2022/06/10 07:48:00;;;;;;;13.07;3.53;;;20.00;99.90;;;;;;4994110;28;20298;-56
2022/06/10 07:50:25;;;;;;;14.00;4.45;;;20.10;99.90;;;;;;4994090;28;20263;-56
2022/06/10 07:52:51;;;;;;;10.50;4.00;;;20.20;99.90;;;;;;4993881;28;20267;-56
2022/06/10 07:55:18;;;;;;;11.20;3.80;;;20.40;99.90;;;;;;4993627;28;20208;-56
2022/06/10 07:57:44;;;;;;;11.35;3.30;;;20.30;99.90;;;;;;4993807;28;20186;-55
2022/06/10 08:00:12;;;;;;;4.07;2.03;;;20.00;99.90;;;;;;4993745;28;20177;-55
2022/06/10 08:02:39;;;;;;;6.10;2.25;;;19.80;99.90;;;;;;4993454;28;20168;-55
2022/06/10 08:05:07;;;;;;;8.93;1.95;;;19.70;99.90;;;;;;4993710;28;20165;-56
2022/06/10 08:07:33;;;;;;;6.90;1.80;;;19.80;99.90;;;;;;4993521;28;20171;-56
2022/06/10 08:09:59;;;;;;;7.55;2.13;;;19.70;99.90;;;;;;4993894;28;20176;-56
2022/06/10 08:12:25;;;;;;;5.90;2.13;;;19.80;99.90;;;;;;4993445;28;20161;-56
2022/06/10 08:14:50;;;;;;;5.63;2.28;;;20.10;99.90;;;;;;4993099;28;20204;-56
2022/06/10 08:17:16;;;;;;;8.73;1.98;;;20.50;99.90;;;;;;4993456;28;20537;-56
2022/06/10 08:19:42;;;;;;;6.30;2.13;;;20.40;99.90;;;;;;4993312;28;20165;-56
2022/06/10 08:24:53;;;;;;;9.65;2.50;;;20.40;99.90;;;;;;4992989;28;20545;-55
2022/06/10 08:27:19;;;;;;;7.93;1.70;;;20.40;99.90;;;;;;4993167;28;20247;-56
2022/06/10 08:29:44;;;;;;;8.38;2.20;;;20.40;99.90;;;;;;4992739;28;20584;-56
2022/06/10 08:32:10;;;;;;;8.82;2.42;;;20.50;99.90;;;;;;4993110;28;20244;-56
2022/06/10 08:34:36;;;;;;;5.57;1.75;;;20.40;99.90;;;;;;4993064;28;20173;-56
2022/06/10 08:37:03;;;;;;;7.18;1.90;;;20.50;99.90;;;;;;4993287;28;20650;-55
2022/06/10 08:39:29;;;;;;;6.38;2.10;;;20.60;99.90;;;;;;4993372;28;20187;-55
2022/06/10 08:42:11;;;;;;;5.75;2.20;;;20.40;99.90;;;;;;4992859;28;20165;-55
2022/06/10 08:44:40;;;;;;;6.13;2.00;;;20.30;99.90;;;;;;4993025;28;20550;-55
2022/06/10 08:47:46;;;;;;;7.60;2.20;;;20.50;99.90;;;;;;4992674;28;20171;-55
2022/06/10 08:50:34;;;;;;;6.22;2.25;;;20.50;99.90;;;;;;4992120;28;20616;-55
2022/06/10 08:53:08;;;;;;;8.30;2.20;;;20.00;99.90;;;;;;4993217;28;20165;-56
2022/06/10 08:56:03;;;;;;;6.70;1.90;;;19.80;99.90;;;;;;4975266;28;20290;-56
2022/06/10 08:58:47;;;;;;;9.80;2.45;;;19.50;99.90;;;;;;4993200;28;20184;-55
2022/06/10 09:01:17;;;;;;;5.75;1.80;;;19.40;99.90;;;;;;4992815;28;20161;-55
2022/06/10 09:04:04;;;;;;;7.03;2.28;;;19.50;99.90;;;;;;4992715;28;20266;-55
2022/06/10 09:07:06;;;;;;;4.93;2.20;;;19.50;99.90;;;;;;4992907;28;20630;-55
2022/06/10 09:09:33;;;;;;;5.38;1.70;;;19.60;99.90;;;;;;4962126;28;20188;-56
2022/06/10 09:12:23;;;;;;;7.68;2.33;;;19.60;99.90;;;;;;4993006;28;20513;-55
2022/06/10 09:14:55;;;;;;;8.02;2.25;;;19.70;99.90;;;;;;4992521;28;20224;-56
2022/06/10 09:17:35;;;;;;;7.75;2.38;;;19.60;99.90;;;;;;4992574;28;20164;-56
2022/06/10 09:20:17;;;;;;;6.03;2.15;;;19.60;99.90;;;;;;4992903;28;20223;-56
2022/06/10 09:22:55;;;;;;;9.48;2.40;;;19.70;99.90;;;;;;4992732;28;20554;-56
2022/06/10 09:25:32;;;;;;;6.53;2.08;;;19.50;99.90;;;;;;4992223;28;20172;-56
2022/06/10 09:28:00;;;;;;;6.57;2.22;;;19.60;99.90;;;;;;4995123;28;20171;-56
2022/06/10 09:30:38;;;;;;;7.38;2.20;;;19.60;99.90;;;;;;4996595;28;20638;-57
2022/06/10 09:33:25;;;;;;;8.25;2.60;;;19.70;99.90;;;;;;4996046;28;20721;-56
2022/06/10 09:35:58;;;;;;;10.07;2.55;;;19.90;99.90;;;;;;4996309;28;20214;-56
2022/06/10 09:38:35;;;;;;;6.78;2.75;;;19.90;99.90;;;;;;4995998;28;20713;-57
2022/06/10 09:41:39;;;;;;;7.05;2.28;;;19.70;99.90;;;;;;4996511;28;20182;-57
2022/06/10 09:44:27;;;;;;;6.88;2.22;;;19.70;99.90;;;;;;4996118;28;20231;-57
2022/06/10 09:47:24;;;;;;;6.18;2.33;;;19.70;99.90;;;;;;4998645;28;20164;-56
2022/06/10 09:50:08;;;;;;;10.30;2.47;;;19.80;99.90;;;;;;5009769;28;20172;-57
2022/06/10 09:52:55;;;;;;;8.98;2.63;;;19.90;99.90;;;;;;5015760;28;20180;-56
2022/06/10 09:55:59;;;;;;;6.93;2.00;;;20.00;99.90;;;;;;5015350;28;20210;-56
2022/06/10 09:58:51;;;;;;;5.10;1.67;;;20.30;99.90;;;;;;4916980;29;20183;-57
2022/06/10 10:01:28;;;;;;;5.78;1.98;;;20.60;99.90;;;;;;4916949;29;20250;-57
2022/06/10 10:04:41;;;;;;;10.07;2.13;;;20.50;99.90;;;;;;4988038;28;20565;-56
2022/06/10 10:07:14;;;;;;;8.13;2.40;;;20.80;99.90;;;;;;5006876;28;20188;-57
2022/06/10 10:10:10;;;;;;;6.07;2.70;;;21.10;99.90;;;;;;5015140;28;20199;-56
2022/06/10 10:13:13;;;;;;;7.32;2.60;;;21.00;99.90;;;;;;5015372;28;20172;-56
2022/06/10 10:15:49;;;;;;;8.68;3.40;;;21.10;99.90;;;;;;5015206;28;20200;-57
2022/06/10 10:18:48;;;;;;;8.45;3.20;;;21.40;99.90;;;;;;5015309;28;20262;-56
2022/06/10 10:21:28;;;;;;;13.25;2.70;;;21.50;99.90;;;;;;5015017;28;20176;-57
2022/06/10 10:23:56;;;;;;;7.72;2.42;;;21.50;99.90;;;;;;5015025;28;20176;-57
2022/06/10 10:26:36;;;;;;;4.80;2.15;;;21.40;99.90;;;;;;5015019;28;20203;-56
2022/06/10 10:29:20;;;;;;;5.82;2.15;;;21.60;99.90;;;;;;5014934;28;20172;-57
2022/06/10 10:31:55;;;;;;;5.60;2.20;;;21.60;99.90;;;;;;5015016;28;20176;-56
2022/06/10 10:34:24;;;;;;;5.75;2.08;;;21.90;99.90;;;;;;5014888;28;20267;-57
2022/06/10 10:37:00;;;;;;;5.75;2.22;;;22.10;99.90;;;;;;5014622;28;20239;-57
2022/06/10 10:39:38;;;;;;;8.43;2.55;;;22.10;99.90;;;;;;5014612;28;20159;-57
2022/06/10 10:42:13;;;;;;;7.97;2.42;;;22.00;99.90;;;;;;5014643;28;20164;-57
2022/06/10 10:44:44;;;;;;;7.97;2.92;;;22.30;99.90;;;;;;5014715;28;20171;-57
2022/06/10 10:47:10;;;;;;;6.40;2.40;;;22.30;99.90;;;;;;5014671;28;20172;-57
2022/06/10 10:49:48;;;;;;;7.40;2.20;;;22.60;99.90;;;;;;5014563;28;20168;-57
2022/06/10 10:52:24;;;;;;;6.55;2.20;;;22.80;99.90;;;;;;5014599;28;20187;-57
2022/06/10 10:55:02;;;;;;;4.50;1.92;;;22.90;99.90;;;;;;5014595;28;20234;-57
2022/06/10 10:57:32;;;;;;;7.90;2.20;;;22.90;99.90;;;;;;5014785;28;20172;-57
2022/06/10 11:00:10;;;;;;;5.50;2.22;;;22.70;99.90;;;;;;5014743;28;20174;-57
2022/06/10 11:02:54;;;;;;;4.60;2.10;;;22.80;99.90;;;;;;5014376;28;20175;-57
2022/06/10 11:05:25;;;;;;;5.07;2.17;;;22.60;99.90;;;;;;5014349;28;20709;-57
2022/06/10 11:08:25;;;;;;;5.20;2.15;;;22.80;99.90;;;;;;5014527;28;20180;-57
2022/06/10 11:11:21;;;;;;;3.67;1.83;;;22.70;99.90;;;;;;5014422;28;20225;-56
2022/06/10 11:13:54;;;;;;;4.75;1.88;;;22.70;99.90;;;;;;5014289;28;20218;-57
2022/06/10 11:16:31;;;;;;;7.55;2.65;;;22.70;99.90;;;;;;5014328;28;20214;-57
2022/06/10 11:19:12;;;;;;;11.27;4.05;;;23.20;99.90;;;;;;5014370;28;20163;-57
2022/06/10 11:22:01;;;;;;;8.00;2.60;;;23.20;99.90;;;;;;5014033;28;20170;-57
2022/06/10 11:24:37;;;;;;;5.63;2.85;;;23.60;99.90;;;;;;5014245;28;20206;-57
2022/06/10 11:27:17;;;;;;;9.00;2.83;;;23.40;99.90;;;;;;5013867;28;20187;-57
2022/06/10 11:29:43;;;;;;;4.25;2.38;;;23.50;99.90;;;;;;5013798;28;20173;-57
2022/06/10 11:32:21;;;;;;;6.25;2.35;;;23.30;99.90;;;;;;5013885;28;20171;-57
2022/06/10 11:34:58;;;;;;;9.75;3.28;;;23.20;99.90;;;;;;5013736;28;20159;-57
2022/06/10 11:37:39;;;;;;;6.40;2.45;;;23.00;99.90;;;;;;5013966;28;20217;-57
2022/06/10 11:40:20;;;;;;;4.80;2.40;;;23.30;99.90;;;;;;5013617;28;20655;-57
2022/06/10 11:43:08;;;;;;;7.05;2.47;;;23.30;99.90;;;;;;5013609;28;20190;-57
2022/06/10 11:45:44;;;;;;;7.45;2.58;;;23.70;99.90;;;;;;5013592;28;20656;-57
2022/06/10 11:48:36;;;;;;;5.35;2.00;;;24.00;99.90;;;;;;5013390;28;20226;-57
2022/06/10 11:51:28;;;;;;;7.70;2.35;;;23.90;99.90;;;;;;5013023;28;20171;-57
2022/06/10 11:54:17;;;;;;;6.75;2.58;;;24.00;99.90;;;;;;4995719;28;20167;-57
2022/06/10 12:00:09;;;;;;;3.85;2.00;;;24.30;99.90;;;;;;5013398;28;20174;-57
2022/06/10 12:02:38;;;;;;;4.78;2.00;;;24.40;99.90;;;;;;5013228;28;20251;-57
2022/06/10 12:05:31;;;;;;;5.07;2.25;;;24.60;99.90;;;;;;4995599;28;20160;-57
2022/06/10 12:08:13;;;;;;;4.65;2.28;;;24.60;99.90;;;;;;5013585;28;20171;-57
2022/06/10 12:11:00;;;;;;;4.93;2.30;;;24.50;99.90;;;;;;5013181;28;20167;-56
2022/06/10 12:13:30;;;;;;;7.18;2.55;;;24.20;99.90;;;;;;4995745;28;20167;-56
2022/06/10 12:15:58;;;;;;;7.32;2.30;;;23.80;99.90;;;;;;5013242;28;20206;-56
2022/06/10 12:18:30;;;;;;;8.27;2.13;;;24.00;99.90;;;;;;5012988;28;20171;-56
2022/06/10 12:21:02;;;;;;;7.95;2.33;;;24.30;99.90;;;;;;5013389;28;20187;-57
2022/06/10 12:23:31;;;;;;;5.50;2.05;;;24.20;99.90;;;;;;5013214;28;20532;-57
2022/06/10 12:26:14;;;;;;;6.20;2.40;;;24.10;99.90;;;;;;4995559;28;20258;-56
2022/06/10 12:28:39;;;;;;;6.07;2.03;;;24.30;99.90;;;;;;5012806;28;20213;-56
2022/06/10 12:31:31;;;;;;;4.82;2.00;;;24.40;99.90;;;;;;5012810;28;20262;-57
2022/06/10 12:34:10;;;;;;;6.55;1.73;;;24.00;99.90;;;;;;5013167;28;20229;-56
2022/06/10 12:36:42;;;;;;;8.70;1.88;;;24.40;99.90;;;;;;5012856;28;20210;-56
2022/06/10 12:39:26;;;;;;;6.70;2.17;;;24.80;99.90;;;;;;5012599;28;20595;-57
2022/06/10 12:41:59;;;;;;;4.20;1.77;;;24.80;99.90;;;;;;5012519;28;20160;-57
2022/06/10 12:44:29;;;;;;;6.40;2.15;;;24.80;99.90;;;;;;5012914;28;20171;-56
2022/06/10 12:47:00;;;;;;;5.15;1.63;;;25.00;99.90;;;;;;5012760;28;20171;-57
2022/06/10 12:49:43;;;;;;;5.45;1.70;;;25.10;99.90;;;;;;5012968;28;20183;-56
2022/06/10 12:52:24;;;;;;;5.50;2.38;;;25.20;99.90;;;;;;5012656;28;20254;-57
2022/06/10 12:55:05;;;;;;;8.32;2.15;;;25.20;99.90;;;;;;5012607;28;20233;-57
2022/06/10 12:57:36;;;;;;;4.15;2.15;;;25.10;99.90;;;;;;5012322;28;20171;-57
2022/06/10 13:00:33;;;;;;;6.32;2.03;;;25.40;99.90;;;;;;5012437;28;20194;-57
2022/06/10 13:03:14;;;;;;;9.13;2.10;;;25.50;99.90;;;;;;5011694;28;20655;-57
2022/06/10 13:05:40;;;;;;;7.22;2.25;;;25.80;99.90;;;;;;5012272;28;20721;-57
2022/06/10 13:08:34;;;;;;;6.45;2.13;;;25.70;99.90;;;;;;5012484;28;20168;-57
2022/06/10 13:11:02;;;;;;;4.75;1.83;;;25.70;99.90;;;;;;5012137;28;20699;-57
2022/06/10 13:13:28;;;;;;;11.90;2.30;;;25.30;99.90;;;;;;5012291;28;20186;-56
2022/06/10 13:16:42;;;;;;;6.25;2.33;;;25.00;99.90;;;;;;5011862;28;20207;-57
2022/06/10 13:19:24;;;;;;;7.70;2.25;;;24.70;99.90;;;;;;5004237;28;20219;-57
2022/06/10 13:21:50;;;;;;;5.25;1.70;;;24.60;99.90;;;;;;5010176;28;20177;-57
2022/06/10 13:24:16;;;;;;;4.47;2.05;;;24.60;99.90;;;;;;5011978;28;20163;-57
2022/06/10 13:26:42;;;;;;;8.95;2.40;;;24.70;99.90;;;;;;5011864;28;20562;-57
2022/06/10 13:29:15;;;;;;;6.15;1.92;;;24.70;99.90;;;;;;5012039;28;20632;-57
2022/06/10 13:31:55;;;;;;;5.57;1.55;;;24.50;99.90;;;;;;5011823;28;20183;-57